sensor_id;sensor_type;location;lat;lon;timestamp;pressure;altitude;pressure_sealevel;temperature;humidity
4012;BME280;2020;48.682;9.024;2022-11-11T00:01:13;97821.53;;;4.07;85.76
4012;BME280;2020;48.682;9.024;2022-11-11T00:03:40;97825.84;;;3.91;86.63
4012;BME280;2020;48.682;9.024;2022-11-11T00:06:13;97826.84;;;4.04;86.42
4012;BME280;2020;48.682;9.024;2022-11-11T00:08:39;97824.03;;;4.09;86.25
4012;BME280;2020;48.682;9.024;2022-11-11T00:11:10;97832.38;;;4.14;86.13
4012;BME280;2020;48.682;9.024;2022-11-11T00:13:36;97833.66;;;4.05;85.94
4012;BME280;2020;48.682;9.024;2022-11-11T00:16:05;97825.34;;;4.00;85.80
4012;BME280;2020;48.682;9.024;2022-11-11T00:18:31;97827.34;;;3.95;86.08
4012;BME280;2020;48.682;9.024;2022-11-11T00:21:15;97824.31;;;3.87;86.27
4012;BME280;2020;48.682;9.024;2022-11-11T00:23:59;97816.50;;;3.72;87.17
4012;BME280;2020;48.682;9.024;2022-11-11T00:26:43;97819.81;;;3.74;86.91
4012;BME280;2020;48.682;9.024;2022-11-11T00:29:08;97820.59;;;3.59;86.69
4012;BME280;2020;48.682;9.024;2022-11-11T00:31:34;97816.81;;;3.66;86.52
4012;BME280;2020;48.682;9.024;2022-11-11T00:33:59;97833.16;;;3.65;87.75
4012;BME280;2020;48.682;9.024;2022-11-11T00:36:25;97829.00;;;3.62;87.89
4012;BME280;2020;48.682;9.024;2022-11-11T00:38:50;97832.88;;;3.54;86.70
4012;BME280;2020;48.682;9.024;2022-11-11T00:41:24;97831.50;;;3.64;87.13
4012;BME280;2020;48.682;9.024;2022-11-11T00:43:51;97828.63;;;3.70;86.33
4012;BME280;2020;48.682;9.024;2022-11-11T00:46:16;97833.34;;;3.44;86.83
4012;BME280;2020;48.682;9.024;2022-11-11T00:49:00;97833.69;;;3.54;86.99
4012;BME280;2020;48.682;9.024;2022-11-11T00:51:44;97835.47;;;3.54;86.16
4012;BME280;2020;48.682;9.024;2022-11-11T00:54:10;97845.50;;;3.58;86.87
4012;BME280;2020;48.682;9.024;2022-11-11T00:56:36;97845.31;;;3.45;86.36
4012;BME280;2020;48.682;9.024;2022-11-11T00:59:04;97852.13;;;3.46;86.52
4012;BME280;2020;48.682;9.024;2022-11-11T01:01:30;97850.31;;;3.48;87.26
4012;BME280;2020;48.682;9.024;2022-11-11T01:03:55;97854.28;;;3.54;86.71
4012;BME280;2020;48.682;9.024;2022-11-11T01:06:21;97847.31;;;3.56;86.24
4012;BME280;2020;48.682;9.024;2022-11-11T01:08:46;97849.09;;;3.38;86.81
4012;BME280;2020;48.682;9.024;2022-11-11T01:11:13;97848.47;;;3.50;86.87
4012;BME280;2020;48.682;9.024;2022-11-11T01:13:40;97850.75;;;3.39;86.88
4012;BME280;2020;48.682;9.024;2022-11-11T01:16:08;97852.13;;;3.46;86.58
4012;BME280;2020;48.682;9.024;2022-11-11T01:18:34;97853.09;;;3.44;86.50
4012;BME280;2020;48.682;9.024;2022-11-11T01:21:05;97855.53;;;3.29;86.61
4012;BME280;2020;48.682;9.024;2022-11-11T01:23:33;97847.84;;;3.28;86.92
4012;BME280;2020;48.682;9.024;2022-11-11T01:26:12;97848.00;;;3.25;87.18
4012;BME280;2020;48.682;9.024;2022-11-11T01:28:38;97847.44;;;3.37;87.09
4012;BME280;2020;48.682;9.024;2022-11-11T01:31:06;97850.53;;;3.44;86.32
4012;BME280;2020;48.682;9.024;2022-11-11T01:33:32;97852.78;;;3.32;86.82
4012;BME280;2020;48.682;9.024;2022-11-11T01:36:06;97856.22;;;3.33;86.92
4012;BME280;2020;48.682;9.024;2022-11-11T01:38:32;97850.91;;;3.36;86.77
4012;BME280;2020;48.682;9.024;2022-11-11T01:40:57;97856.06;;;3.36;87.16
4012;BME280;2020;48.682;9.024;2022-11-11T01:43:23;97858.91;;;3.30;87.72
4012;BME280;2020;48.682;9.024;2022-11-11T01:45:55;97858.00;;;3.31;87.20
4012;BME280;2020;48.682;9.024;2022-11-11T01:48:34;97845.06;;;3.32;87.36
4012;BME280;2020;48.682;9.024;2022-11-11T01:51:24;97846.34;;;3.24;87.44
4012;BME280;2020;48.682;9.024;2022-11-11T01:53:57;97851.50;;;3.24;88.40
4012;BME280;2020;48.682;9.024;2022-11-11T01:56:25;97852.03;;;3.30;87.60
4012;BME280;2020;48.682;9.024;2022-11-11T01:58:52;97854.81;;;3.26;87.91
4012;BME280;2020;48.682;9.024;2022-11-11T02:01:19;97848.63;;;3.12;87.62
4012;BME280;2020;48.682;9.024;2022-11-11T02:03:45;97853.25;;;3.05;87.81
4012;BME280;2020;48.682;9.024;2022-11-11T02:06:31;97848.91;;;3.06;87.78
4012;BME280;2020;48.682;9.024;2022-11-11T02:08:57;97843.63;;;3.09;87.39
4012;BME280;2020;48.682;9.024;2022-11-11T02:11:24;97850.13;;;3.16;87.36
4012;BME280;2020;48.682;9.024;2022-11-11T02:14:08;97850.44;;;3.10;87.05
4012;BME280;2020;48.682;9.024;2022-11-11T02:16:52;97845.13;;;3.13;87.04
4012;BME280;2020;48.682;9.024;2022-11-11T02:19:25;97849.75;;;3.06;86.90
4012;BME280;2020;48.682;9.024;2022-11-11T02:21:59;97844.63;;;3.06;87.25
4012;BME280;2020;48.682;9.024;2022-11-11T02:24:26;97842.53;;;2.96;87.76
4012;BME280;2020;48.682;9.024;2022-11-11T02:26:54;97843.75;;;3.06;88.26
4012;BME280;2020;48.682;9.024;2022-11-11T02:29:21;97847.09;;;3.08;87.90
4012;BME280;2020;48.682;9.024;2022-11-11T02:31:47;97852.78;;;2.97;87.60
4012;BME280;2020;48.682;9.024;2022-11-11T02:34:12;97846.16;;;2.91;88.10
4012;BME280;2020;48.682;9.024;2022-11-11T02:36:38;97848.00;;;2.89;87.20
4012;BME280;2020;48.682;9.024;2022-11-11T02:39:04;97849.50;;;2.93;87.10
4012;BME280;2020;48.682;9.024;2022-11-11T02:41:30;97856.25;;;2.96;87.11
4012;BME280;2020;48.682;9.024;2022-11-11T02:44:13;97862.97;;;2.99;87.38
4012;BME280;2020;48.682;9.024;2022-11-11T02:46:39;97861.47;;;2.95;87.53
4012;BME280;2020;48.682;9.024;2022-11-11T02:49:04;97857.75;;;2.83;86.85
4012;BME280;2020;48.682;9.024;2022-11-11T02:51:29;97861.72;;;2.71;87.40
4012;BME280;2020;48.682;9.024;2022-11-11T02:53:55;97863.63;;;2.67;88.41
4012;BME280;2020;48.682;9.024;2022-11-11T02:56:24;97858.53;;;2.66;87.72
4012;BME280;2020;48.682;9.024;2022-11-11T02:59:08;97855.53;;;2.75;87.61
4012;BME280;2020;48.682;9.024;2022-11-11T03:01:33;97855.81;;;2.69;87.63
4012;BME280;2020;48.682;9.024;2022-11-11T03:03:58;97848.56;;;2.77;87.87
4012;BME280;2020;48.682;9.024;2022-11-11T03:06:23;97849.00;;;2.68;88.71
4012;BME280;2020;48.682;9.024;2022-11-11T03:08:49;97851.91;;;2.60;88.14
4012;BME280;2020;48.682;9.024;2022-11-11T03:11:14;97850.81;;;2.66;88.29
4012;BME280;2020;48.682;9.024;2022-11-11T03:13:39;97850.81;;;2.66;88.37
4012;BME280;2020;48.682;9.024;2022-11-11T03:16:05;97845.81;;;2.62;88.36
4012;BME280;2020;48.682;9.024;2022-11-11T03:18:30;97844.00;;;2.65;88.10
4012;BME280;2020;48.682;9.024;2022-11-11T03:20:55;97842.06;;;2.70;88.42
4012;BME280;2020;48.682;9.024;2022-11-11T03:23:29;97826.78;;;2.67;88.16
4012;BME280;2020;48.682;9.024;2022-11-11T03:25:55;97835.53;;;2.62;88.04
4012;BME280;2020;48.682;9.024;2022-11-11T03:28:20;97835.53;;;2.62;87.79
4012;BME280;2020;48.682;9.024;2022-11-11T03:30:47;97837.63;;;2.54;88.81
4012;BME280;2020;48.682;9.024;2022-11-11T03:33:14;97832.78;;;2.48;89.48
4012;BME280;2020;48.682;9.024;2022-11-11T03:35:39;97839.25;;;2.38;89.76
4012;BME280;2020;48.682;9.024;2022-11-11T03:38:07;97831.81;;;2.31;90.94
4012;BME280;2020;48.682;9.024;2022-11-11T03:40:42;97835.78;;;2.39;91.06
4012;BME280;2020;48.682;9.024;2022-11-11T03:43:08;97834.88;;;2.40;91.10
4012;BME280;2020;48.682;9.024;2022-11-11T03:45:33;97827.16;;;2.40;89.36
4012;BME280;2020;48.682;9.024;2022-11-11T03:47:59;97833.81;;;2.44;89.38
4012;BME280;2020;48.682;9.024;2022-11-11T03:50:24;97841.25;;;2.50;89.43
4012;BME280;2020;48.682;9.024;2022-11-11T03:52:49;97841.25;;;2.50;89.87
4012;BME280;2020;48.682;9.024;2022-11-11T03:55:15;97834.63;;;2.44;89.01
4012;BME280;2020;48.682;9.024;2022-11-11T03:57:42;97843.63;;;2.36;89.86
4012;BME280;2020;48.682;9.024;2022-11-11T04:00:10;97845.16;;;2.40;88.99
4012;BME280;2020;48.682;9.024;2022-11-11T04:02:35;97841.69;;;2.41;89.12
4012;BME280;2020;48.682;9.024;2022-11-11T04:05:19;97851.81;;;2.44;89.21
4012;BME280;2020;48.682;9.024;2022-11-11T04:08:03;97854.84;;;2.33;88.20
4012;BME280;2020;48.682;9.024;2022-11-11T04:10:47;97858.19;;;2.35;89.78
4012;BME280;2020;48.682;9.024;2022-11-11T04:13:12;97853.47;;;2.45;89.77
4012;BME280;2020;48.682;9.024;2022-11-11T04:15:56;97858.91;;;2.39;89.36
4012;BME280;2020;48.682;9.024;2022-11-11T04:18:31;97868.06;;;2.25;89.63
4012;BME280;2020;48.682;9.024;2022-11-11T04:21:15;97871.19;;;2.32;89.85
4012;BME280;2020;48.682;9.024;2022-11-11T04:23:59;97858.34;;;2.32;89.10
4012;BME280;2020;48.682;9.024;2022-11-11T04:26:25;97873.75;;;2.13;89.78
4012;BME280;2020;48.682;9.024;2022-11-11T04:28:50;97877.22;;;2.12;90.27
4012;BME280;2020;48.682;9.024;2022-11-11T04:31:34;97868.63;;;2.13;89.87
4012;BME280;2020;48.682;9.024;2022-11-11T04:33:59;97865.16;;;2.14;90.21
4012;BME280;2020;48.682;9.024;2022-11-11T04:36:25;97865.00;;;2.17;89.79
4012;BME280;2020;48.682;9.024;2022-11-11T04:38:50;97870.28;;;2.14;89.86
4012;BME280;2020;48.682;9.024;2022-11-11T04:41:34;97861.94;;;2.09;90.07
4012;BME280;2020;48.682;9.024;2022-11-11T04:43:59;97857.31;;;2.17;90.07
4012;BME280;2020;48.682;9.024;2022-11-11T04:46:43;97855.78;;;2.13;89.93
4012;BME280;2020;48.682;9.024;2022-11-11T04:49:08;97858.47;;;2.10;91.02
4012;BME280;2020;48.682;9.024;2022-11-11T04:51:34;97864.44;;;2.10;91.64
4012;BME280;2020;48.682;9.024;2022-11-11T04:54:17;97864.72;;;2.04;91.71
4012;BME280;2020;48.682;9.024;2022-11-11T04:56:43;97856.63;;;1.93;91.27
4012;BME280;2020;48.682;9.024;2022-11-11T04:59:18;97866.50;;;2.02;92.07
4012;BME280;2020;48.682;9.024;2022-11-11T05:01:45;97877.63;;;2.02;91.69
4012;BME280;2020;48.682;9.024;2022-11-11T05:04:29;97877.22;;;2.12;91.90
4012;BME280;2020;48.682;9.024;2022-11-11T05:06:55;97882.81;;;2.01;91.28
4012;BME280;2020;48.682;9.024;2022-11-11T05:09:38;97892.91;;;2.06;91.58
4012;BME280;2020;48.682;9.024;2022-11-11T05:12:04;97897.97;;;2.07;90.99
4012;BME280;2020;48.682;9.024;2022-11-11T05:14:29;97904.97;;;2.03;91.26
4012;BME280;2020;48.682;9.024;2022-11-11T05:17:13;97910.00;;;2.07;90.77
4012;BME280;2020;48.682;9.024;2022-11-11T05:19:57;97911.91;;;2.01;90.59
4012;BME280;2020;48.682;9.024;2022-11-11T05:22:42;97913.81;;;1.96;90.72
4012;BME280;2020;48.682;9.024;2022-11-11T05:25:10;97913.06;;;1.94;89.80
4012;BME280;2020;48.682;9.024;2022-11-11T05:27:57;97914.59;;;1.78;90.51
4012;BME280;2020;48.682;9.024;2022-11-11T05:30:24;97921.03;;;1.88;90.91
4012;BME280;2020;48.682;9.024;2022-11-11T05:32:50;97927.13;;;1.85;90.87
4012;BME280;2020;48.682;9.024;2022-11-11T05:35:16;97925.59;;;1.81;91.00
4012;BME280;2020;48.682;9.024;2022-11-11T05:37:42;97928.69;;;1.89;91.26
4012;BME280;2020;48.682;9.024;2022-11-11T05:40:08;97937.91;;;1.94;90.71
4012;BME280;2020;48.682;9.024;2022-11-11T05:42:34;97936.31;;;1.91;91.06
4012;BME280;2020;48.682;9.024;2022-11-11T05:44:59;97944.97;;;1.88;91.21
4012;BME280;2020;48.682;9.024;2022-11-11T05:47:25;97943.22;;;1.89;91.75
4012;BME280;2020;48.682;9.024;2022-11-11T05:49:51;97954.34;;;1.89;91.31
4012;BME280;2020;48.682;9.024;2022-11-11T05:52:16;97946.97;;;1.82;92.10
4012;BME280;2020;48.682;9.024;2022-11-11T05:54:42;97951.97;;;1.85;92.60
4012;BME280;2020;48.682;9.024;2022-11-11T05:57:08;97957.09;;;1.85;92.48
4012;BME280;2020;48.682;9.024;2022-11-11T05:59:33;97951.19;;;1.62;92.66
4012;BME280;2020;48.682;9.024;2022-11-11T06:01:59;97957.47;;;1.75;92.35
4012;BME280;2020;48.682;9.024;2022-11-11T06:04:25;97966.22;;;1.71;92.35
4012;BME280;2020;48.682;9.024;2022-11-11T06:06:50;97958.34;;;1.76;91.89
4012;BME280;2020;48.682;9.024;2022-11-11T06:09:16;97961.69;;;1.78;91.65
4012;BME280;2020;48.682;9.024;2022-11-11T06:11:41;97967.50;;;1.82;91.82
4012;BME280;2020;48.682;9.024;2022-11-11T06:14:06;97969.81;;;1.67;92.62
4012;BME280;2020;48.682;9.024;2022-11-11T06:16:32;97969.69;;;1.70;92.45
4012;BME280;2020;48.682;9.024;2022-11-11T06:18:57;97973.75;;;1.76;92.55
4012;BME280;2020;48.682;9.024;2022-11-11T06:21:24;97969.28;;;1.80;92.46
4012;BME280;2020;48.682;9.024;2022-11-11T06:23:50;97967.25;;;1.88;92.49
4012;BME280;2020;48.682;9.024;2022-11-11T06:26:15;97969.16;;;1.83;92.19
4012;BME280;2020;48.682;9.024;2022-11-11T06:28:49;97972.31;;;1.69;93.34
4012;BME280;2020;48.682;9.024;2022-11-11T06:31:20;97981.50;;;1.74;92.65
4012;BME280;2020;48.682;9.024;2022-11-11T06:33:46;97980.78;;;1.71;93.07
4012;BME280;2020;48.682;9.024;2022-11-11T06:36:13;97981.50;;;1.74;93.02
4012;BME280;2020;48.682;9.024;2022-11-11T06:38:40;97989.72;;;1.83;92.72
4012;BME280;2020;48.682;9.024;2022-11-11T06:41:06;97999.84;;;1.86;92.84
4012;BME280;2020;48.682;9.024;2022-11-11T06:43:31;97994.47;;;1.92;91.96
4012;BME280;2020;48.682;9.024;2022-11-11T06:45:57;97998.66;;;1.95;92.01
4012;BME280;2020;48.682;9.024;2022-11-11T06:48:24;98009.38;;;2.04;92.24
4012;BME280;2020;48.682;9.024;2022-11-11T06:50:50;98006.06;;;2.02;91.85
4012;BME280;2020;48.682;9.024;2022-11-11T06:53:17;98009.13;;;2.11;91.56
4012;BME280;2020;48.682;9.024;2022-11-11T06:55:43;97995.78;;;2.02;92.36
4012;BME280;2020;48.682;9.024;2022-11-11T06:58:11;98004.38;;;2.01;92.98
4012;BME280;2020;48.682;9.024;2022-11-11T07:00:37;98000.78;;;2.06;92.59
4012;BME280;2020;48.682;9.024;2022-11-11T07:03:04;97992.09;;;2.08;91.78
4012;BME280;2020;48.682;9.024;2022-11-11T07:05:29;98004.75;;;2.13;91.98
4012;BME280;2020;48.682;9.024;2022-11-11T07:07:55;98001.94;;;2.19;93.20
4012;BME280;2020;48.682;9.024;2022-11-11T07:10:20;98011.44;;;2.17;93.46
4012;BME280;2020;48.682;9.024;2022-11-11T07:12:46;98015.41;;;2.24;93.03
4012;BME280;2020;48.682;9.024;2022-11-11T07:15:11;98008.22;;;2.32;92.83
4012;BME280;2020;48.682;9.024;2022-11-11T07:17:36;98009.75;;;2.37;92.72
4012;BME280;2020;48.682;9.024;2022-11-11T07:20:02;98007.81;;;2.42;93.21
4012;BME280;2020;48.682;9.024;2022-11-11T07:22:28;98010.25;;;2.45;93.17
4012;BME280;2020;48.682;9.024;2022-11-11T07:24:53;98009.63;;;2.40;93.36
4012;BME280;2020;48.682;9.024;2022-11-11T07:27:18;98011.78;;;2.49;93.27
4012;BME280;2020;48.682;9.024;2022-11-11T07:29:43;98016.22;;;2.66;93.71
4012;BME280;2020;48.682;9.024;2022-11-11T07:32:09;98017.75;;;2.70;94.31
4012;BME280;2020;48.682;9.024;2022-11-11T07:34:34;98024.81;;;2.84;94.99
4012;BME280;2020;48.682;9.024;2022-11-11T07:36:59;98015.94;;;2.91;94.97
4012;BME280;2020;48.682;9.024;2022-11-11T07:39:24;98014.75;;;2.99;94.19
4012;BME280;2020;48.682;9.024;2022-11-11T07:41:50;98010.38;;;3.01;93.06
4012;BME280;2020;48.682;9.024;2022-11-11T07:44:15;98012.94;;;3.01;92.91
4012;BME280;2020;48.682;9.024;2022-11-11T07:46:40;98017.03;;;3.05;92.51
4012;BME280;2020;48.682;9.024;2022-11-11T07:49:05;98014.28;;;3.10;92.14
4012;BME280;2020;48.682;9.024;2022-11-11T07:51:31;98023.28;;;3.18;93.77
4012;BME280;2020;48.682;9.024;2022-11-11T07:53:56;98021.91;;;3.30;94.51
4012;BME280;2020;48.682;9.024;2022-11-11T07:56:21;98028.84;;;3.47;93.54
4012;BME280;2020;48.682;9.024;2022-11-11T07:58:47;98030.69;;;3.63;95.24
4012;BME280;2020;48.682;9.024;2022-11-11T08:01:12;98032.53;;;3.78;95.96
4012;BME280;2020;48.682;9.024;2022-11-11T08:03:37;98026.78;;;3.91;94.98
4012;BME280;2020;48.682;9.024;2022-11-11T08:06:14;98024.66;;;3.99;95.80
4012;BME280;2020;48.682;9.024;2022-11-11T08:08:40;98026.31;;;4.00;96.08
4012;BME280;2020;48.682;9.024;2022-11-11T08:11:05;98017.06;;;4.14;95.45
4012;BME280;2020;48.682;9.024;2022-11-11T08:13:30;98023.72;;;4.18;94.92
4012;BME280;2020;48.682;9.024;2022-11-11T08:16:08;98020.16;;;4.38;95.10
4012;BME280;2020;48.682;9.024;2022-11-11T08:18:33;98011.91;;;4.65;95.34
4012;BME280;2020;48.682;9.024;2022-11-11T08:20:59;98016.94;;;4.84;93.32
4012;BME280;2020;48.682;9.024;2022-11-11T08:23:25;98017.63;;;5.04;93.35
4012;BME280;2020;48.682;9.024;2022-11-11T08:26:01;98018.47;;;5.20;93.46
4012;BME280;2020;48.682;9.024;2022-11-11T08:28:29;98018.53;;;5.35;93.88
4012;BME280;2020;48.682;9.024;2022-11-11T08:30:57;98013.25;;;5.52;93.26
4012;BME280;2020;48.682;9.024;2022-11-11T08:33:23;98014.25;;;5.66;93.91
4012;BME280;2020;48.682;9.024;2022-11-11T08:35:48;98006.31;;;5.69;93.59
4012;BME280;2020;48.682;9.024;2022-11-11T08:38:13;98005.03;;;5.76;93.76
4012;BME280;2020;48.682;9.024;2022-11-11T08:40:39;98002.69;;;5.88;94.32
4012;BME280;2020;48.682;9.024;2022-11-11T08:43:04;98000.19;;;6.02;93.56
4012;BME280;2020;48.682;9.024;2022-11-11T08:45:30;97999.09;;;6.06;95.77
4012;BME280;2020;48.682;9.024;2022-11-11T08:47:55;97999.84;;;6.08;93.39
4012;BME280;2020;48.682;9.024;2022-11-11T08:50:20;97988.41;;;6.27;95.36
4012;BME280;2020;48.682;9.024;2022-11-11T08:52:50;97991.56;;;6.32;97.11
4012;BME280;2020;48.682;9.024;2022-11-11T08:55:16;97994.88;;;6.34;94.89
4012;BME280;2020;48.682;9.024;2022-11-11T08:57:42;98000.97;;;6.33;91.16
4012;BME280;2020;48.682;9.024;2022-11-11T09:00:08;97997.47;;;6.49;94.04
4012;BME280;2020;48.682;9.024;2022-11-11T09:02:34;98002.56;;;6.65;94.81
4012;BME280;2020;48.682;9.024;2022-11-11T09:04:59;98005.41;;;6.75;95.53
4012;BME280;2020;48.682;9.024;2022-11-11T09:07:25;98012.25;;;6.76;94.66
4012;BME280;2020;48.682;9.024;2022-11-11T09:09:51;98001.88;;;6.90;94.58
4012;BME280;2020;48.682;9.024;2022-11-11T09:12:16;97999.66;;;6.98;92.74
4012;BME280;2020;48.682;9.024;2022-11-11T09:14:41;98007.69;;;7.08;92.22
4012;BME280;2020;48.682;9.024;2022-11-11T09:17:07;98006.06;;;7.35;91.79
4012;BME280;2020;48.682;9.024;2022-11-11T09:19:32;98005.97;;;7.64;91.46
4012;BME280;2020;48.682;9.024;2022-11-11T09:21:57;98011.41;;;7.86;90.76
4012;BME280;2020;48.682;9.024;2022-11-11T09:24:23;98009.78;;;8.11;88.48
4012;BME280;2020;48.682;9.024;2022-11-11T09:26:49;98008.88;;;8.38;87.40
4012;BME280;2020;48.682;9.024;2022-11-11T09:29:15;97997.38;;;8.68;87.71
4012;BME280;2020;48.682;9.024;2022-11-11T09:31:40;97994.22;;;8.89;85.30
4012;BME280;2020;48.682;9.024;2022-11-11T09:34:05;97997.78;;;9.12;85.64
4012;BME280;2020;48.682;9.024;2022-11-11T09:36:31;97994.72;;;9.31;86.00
4012;BME280;2020;48.682;9.024;2022-11-11T09:38:57;97997.66;;;9.51;83.79
4012;BME280;2020;48.682;9.024;2022-11-11T09:44:01;97998.66;;;9.61;84.39
4012;BME280;2020;48.682;9.024;2022-11-11T09:50:00;98002.84;;;9.75;83.85
4012;BME280;2020;48.682;9.024;2022-11-11T09:55:03;97992.28;;;10.01;83.22
4012;BME280;2020;48.682;9.024;2022-11-11T09:57:50;97990.09;;;10.19;82.54
4012;BME280;2020;48.682;9.024;2022-11-11T10:00:23;97989.91;;;10.45;82.52
4012;BME280;2020;48.682;9.024;2022-11-11T10:02:52;97990.81;;;10.33;79.43
4012;BME280;2020;48.682;9.024;2022-11-11T10:05:21;97995.03;;;10.00;78.70
4012;BME280;2020;48.682;9.024;2022-11-11T10:07:56;97989.34;;;10.06;81.91
4012;BME280;2020;48.682;9.024;2022-11-11T10:10:29;97978.03;;;10.18;78.26
4012;BME280;2020;48.682;9.024;2022-11-11T10:12:59;97984.19;;;10.29;80.09
4012;BME280;2020;48.682;9.024;2022-11-11T10:15:34;97985.00;;;10.29;79.00
4012;BME280;2020;48.682;9.024;2022-11-11T10:18:22;97984.25;;;10.40;79.95
4012;BME280;2020;48.682;9.024;2022-11-11T10:20:55;97973.59;;;10.43;81.07
4012;BME280;2020;48.682;9.024;2022-11-11T10:23:26;97979.84;;;10.52;82.42
4012;BME280;2020;48.682;9.024;2022-11-11T10:25:55;97974.53;;;10.76;79.50
4012;BME280;2020;48.682;9.024;2022-11-11T10:28:24;97975.44;;;10.98;78.66
4012;BME280;2020;48.682;9.024;2022-11-11T10:30:51;97977.59;;;10.93;76.72
4012;BME280;2020;48.682;9.024;2022-11-11T10:33:25;97979.69;;;11.10;77.49
4012;BME280;2020;48.682;9.024;2022-11-11T10:35:52;97977.72;;;11.03;74.13
4012;BME280;2020;48.682;9.024;2022-11-11T10:40:58;97979.44;;;11.14;76.52
4012;BME280;2020;48.682;9.024;2022-11-11T10:43:28;97980.91;;;10.95;77.79
4012;BME280;2020;48.682;9.024;2022-11-11T10:46:00;97976.88;;;11.02;75.69
4012;BME280;2020;48.682;9.024;2022-11-11T10:51:17;97984.88;;;11.33;77.14
4012;BME280;2020;48.682;9.024;2022-11-11T10:59:17;97980.09;;;12.04;72.27
4012;BME280;2020;48.682;9.024;2022-11-11T11:02:04;97979.88;;;12.38;70.91
4012;BME280;2020;48.682;9.024;2022-11-11T11:04:36;97977.44;;;12.77;73.22
4012;BME280;2020;48.682;9.024;2022-11-11T11:07:05;97963.47;;;12.57;69.38
4012;BME280;2020;48.682;9.024;2022-11-11T11:12:37;97959.31;;;12.45;68.60
4012;BME280;2020;48.682;9.024;2022-11-11T11:15:08;97961.50;;;12.18;69.63
4012;BME280;2020;48.682;9.024;2022-11-11T11:17:39;97962.13;;;12.32;72.89
4012;BME280;2020;48.682;9.024;2022-11-11T11:20:10;97957.06;;;12.40;69.68
4012;BME280;2020;48.682;9.024;2022-11-11T11:22:52;97958.72;;;12.41;67.94
4012;BME280;2020;48.682;9.024;2022-11-11T11:25:20;97960.13;;;12.45;67.01
4012;BME280;2020;48.682;9.024;2022-11-11T11:27:49;97964.06;;;12.61;67.84
4012;BME280;2020;48.682;9.024;2022-11-11T11:30:20;97956.66;;;12.66;67.25
4012;BME280;2020;48.682;9.024;2022-11-11T11:33:00;97958.03;;;12.70;67.11
4012;BME280;2020;48.682;9.024;2022-11-11T11:35:36;97964.13;;;12.80;70.90
4012;BME280;2020;48.682;9.024;2022-11-11T11:38:02;97966.03;;;12.78;68.69
4012;BME280;2020;48.682;9.024;2022-11-11T11:40:44;97959.00;;;12.69;70.23
4012;BME280;2020;48.682;9.024;2022-11-11T11:43:35;97959.69;;;12.71;68.14
4012;BME280;2020;48.682;9.024;2022-11-11T11:46:04;97960.22;;;12.65;68.85
4012;BME280;2020;48.682;9.024;2022-11-11T11:52:00;97944.72;;;12.83;67.50
4012;BME280;2020;48.682;9.024;2022-11-11T11:54:40;97935.28;;;13.01;66.10
4012;BME280;2020;48.682;9.024;2022-11-11T12:00:31;97939.44;;;13.04;65.28
4012;BME280;2020;48.682;9.024;2022-11-11T12:05:49;97946.88;;;13.19;64.78
4012;BME280;2020;48.682;9.024;2022-11-11T12:08:39;97939.72;;;13.21;66.11
4012;BME280;2020;48.682;9.024;2022-11-11T12:11:28;97940.56;;;13.31;66.42
4012;BME280;2020;48.682;9.024;2022-11-11T12:14:16;97934.78;;;13.37;65.57
4012;BME280;2020;48.682;9.024;2022-11-11T12:16:53;97938.63;;;13.33;64.43
4012;BME280;2020;48.682;9.024;2022-11-11T12:19:36;97950.19;;;13.40;67.93
4012;BME280;2020;48.682;9.024;2022-11-11T12:22:33;97937.03;;;13.62;66.76
4012;BME280;2020;48.682;9.024;2022-11-11T12:25:17;97939.75;;;13.60;65.49
4012;BME280;2020;48.682;9.024;2022-11-11T12:27:55;97934.25;;;13.43;65.03
4012;BME280;2020;48.682;9.024;2022-11-11T12:30:24;97936.56;;;13.86;64.53
4012;BME280;2020;48.682;9.024;2022-11-11T12:36:02;97927.28;;;14.21;65.09
4012;BME280;2020;48.682;9.024;2022-11-11T12:41:25;97921.47;;;14.27;63.08
4012;BME280;2020;48.682;9.024;2022-11-11T12:44:08;97927.50;;;14.38;62.49
4012;BME280;2020;48.682;9.024;2022-11-11T12:52:20;97929.75;;;14.60;61.70
4012;BME280;2020;48.682;9.024;2022-11-11T13:03:42;97924.47;;;14.32;64.01
4012;BME280;2020;48.682;9.024;2022-11-11T13:06:47;97928.56;;;14.45;61.52
4012;BME280;2020;48.682;9.024;2022-11-11T13:09:25;97920.22;;;14.59;60.87
4012;BME280;2020;48.682;9.024;2022-11-11T13:12:04;97919.34;;;14.69;59.81
4012;BME280;2020;48.682;9.024;2022-11-11T13:17:11;97922.41;;;14.74;58.95
4012;BME280;2020;48.682;9.024;2022-11-11T13:19:42;97922.28;;;14.66;59.86
4012;BME280;2020;48.682;9.024;2022-11-11T13:22:26;97918.38;;;14.42;59.92
4012;BME280;2020;48.682;9.024;2022-11-11T13:24:53;97925.78;;;14.46;60.77
4012;BME280;2020;48.682;9.024;2022-11-11T13:27:36;97919.47;;;14.39;58.66
4012;BME280;2020;48.682;9.024;2022-11-11T13:30:10;97917.59;;;14.31;61.30
4012;BME280;2020;48.682;9.024;2022-11-11T13:32:46;97904.41;;;14.13;62.63
4012;BME280;2020;48.682;9.024;2022-11-11T13:35:23;97914.34;;;14.10;60.54
4012;BME280;2020;48.682;9.024;2022-11-11T13:37:51;97919.31;;;14.13;63.19
4012;BME280;2020;48.682;9.024;2022-11-11T13:40:36;97907.59;;;14.17;62.43
4012;BME280;2020;48.682;9.024;2022-11-11T13:43:04;97906.91;;;14.15;63.43
4012;BME280;2020;48.682;9.024;2022-11-11T13:45:39;97918.75;;;14.19;62.59
4012;BME280;2020;48.682;9.024;2022-11-11T13:48:06;97918.97;;;14.36;63.31
4012;BME280;2020;48.682;9.024;2022-11-11T13:50:39;97919.16;;;14.52;62.64
4012;BME280;2020;48.682;9.024;2022-11-11T13:53:14;97912.22;;;14.71;61.72
4012;BME280;2020;48.682;9.024;2022-11-11T13:55:49;97917.44;;;14.71;61.08
4012;BME280;2020;48.682;9.024;2022-11-11T13:58:27;97923.75;;;14.78;60.44
4012;BME280;2020;48.682;9.024;2022-11-11T14:00:58;97919.56;;;14.85;61.06
4012;BME280;2020;48.682;9.024;2022-11-11T14:13:56;97918.88;;;14.55;63.17
4012;BME280;2020;48.682;9.024;2022-11-11T14:18:57;97915.09;;;14.40;60.52
4012;BME280;2020;48.682;9.024;2022-11-11T14:21:49;97919.19;;;14.80;61.04
4012;BME280;2020;48.682;9.024;2022-11-11T14:24:34;97913.94;;;15.26;60.57
4012;BME280;2020;48.682;9.024;2022-11-11T14:29:35;97919.34;;;15.25;58.85
4012;BME280;2020;48.682;9.024;2022-11-11T14:32:17;97922.09;;;15.23;59.76
4012;BME280;2020;48.682;9.024;2022-11-11T14:37:58;97922.53;;;15.18;60.60
4012;BME280;2020;48.682;9.024;2022-11-11T14:40:29;97916.06;;;14.67;61.27
4012;BME280;2020;48.682;9.024;2022-11-11T14:42:55;97912.81;;;14.17;64.09
4012;BME280;2020;48.682;9.024;2022-11-11T14:47:55;97906.09;;;14.04;64.26
4012;BME280;2020;48.682;9.024;2022-11-11T14:52:53;97926.53;;;13.52;65.86
4012;BME280;2020;48.682;9.024;2022-11-11T15:00:42;97928.56;;;13.19;68.77
4012;BME280;2020;48.682;9.024;2022-11-11T15:03:34;97935.84;;;13.15;68.53
4012;BME280;2020;48.682;9.024;2022-11-11T15:06:05;97929.53;;;13.18;69.18
4012;BME280;2020;48.682;9.024;2022-11-11T15:08:59;97926.50;;;13.12;69.20
4012;BME280;2020;48.682;9.024;2022-11-11T15:25:40;97929.03;;;12.32;73.07